Gearhart, Oregon
Current Conditions -  °F | °C
As of 10:55 AM on Friday 24 Oct 2014 (Local Time) from KAST Reporting Station
Clear Clear  
Wind Chill: 55°   Ceiling: Unl
Heat Index: 55°   Visibility: 10mi
Dew Point: 51°   Wind: 8mph
Humidity: 86%   Direction: 80°E
Pressure: 29.96"   Gusts: NA
Location:  45.8905°N, 123.667°W
Report Text: KAST 241755Z AUTO 08007KT 10SM CLR 13/11 A2996 RMK AO2 SLP144 T01280106 10128 20089 58007
Loading
Personal Weather Stations






























Interactive Weather Map New forecast layout! Learn more

10-Day Weather Forecast

Advertisements
Track Severe Weather on mobile